sensor_id;sensor_type;location;lat;lon;timestamp;temperature;humidity
58161;DHT22;49345;47.428;9.892;2022-07-19T00:00:49;16.10;98.80
58161;DHT22;49345;47.428;9.892;2022-07-19T00:03:15;16.00;98.80
58161;DHT22;49345;47.428;9.892;2022-07-19T00:05:42;16.00;98.90
58161;DHT22;49345;47.428;9.892;2022-07-19T00:08:08;16.00;98.80
58161;DHT22;49345;47.428;9.892;2022-07-19T00:10:34;16.00;98.90
58161;DHT22;49345;47.428;9.892;2022-07-19T00:12:59;15.90;98.90
58161;DHT22;49345;47.428;9.892;2022-07-19T00:15:25;15.90;99.10
58161;DHT22;49345;47.428;9.892;2022-07-19T00:17:50;15.80;99.20
58161;DHT22;49345;47.428;9.892;2022-07-19T00:20:17;15.80;99.20
58161;DHT22;49345;47.428;9.892;2022-07-19T00:22:43;15.80;99.20
58161;DHT22;49345;47.428;9.892;2022-07-19T00:25:09;15.80;99.30
58161;DHT22;49345;47.428;9.892;2022-07-19T00:27:35;15.70;99.30
58161;DHT22;49345;47.428;9.892;2022-07-19T00:30:01;15.70;99.10
58161;DHT22;49345;47.428;9.892;2022-07-19T00:32:27;15.70;99.10
58161;DHT22;49345;47.428;9.892;2022-07-19T00:34:52;15.70;99.10
58161;DHT22;49345;47.428;9.892;2022-07-19T00:37:18;15.70;99.30
58161;DHT22;49345;47.428;9.892;2022-07-19T00:39:44;15.60;99.60
58161;DHT22;49345;47.428;9.892;2022-07-19T00:42:09;15.60;99.70
58161;DHT22;49345;47.428;9.892;2022-07-19T00:44:35;15.60;99.60
58161;DHT22;49345;47.428;9.892;2022-07-19T00:47:00;15.50;99.60
58161;DHT22;49345;47.428;9.892;2022-07-19T00:49:27;15.50;99.60
58161;DHT22;49345;47.428;9.892;2022-07-19T00:51:52;15.50;99.50
58161;DHT22;49345;47.428;9.892;2022-07-19T00:54:18;15.60;99.50
58161;DHT22;49345;47.428;9.892;2022-07-19T00:56:44;15.50;99.50
58161;DHT22;49345;47.428;9.892;2022-07-19T00:59:12;15.50;99.50
58161;DHT22;49345;47.428;9.892;2022-07-19T01:01:38;15.40;99.60
58161;DHT22;49345;47.428;9.892;2022-07-19T01:04:04;15.40;99.70
58161;DHT22;49345;47.428;9.892;2022-07-19T01:06:30;15.30;99.60
58161;DHT22;49345;47.428;9.892;2022-07-19T01:08:56;15.30;99.70
58161;DHT22;49345;47.428;9.892;2022-07-19T01:11:22;15.30;99.80
58161;DHT22;49345;47.428;9.892;2022-07-19T01:13:48;15.30;99.90
58161;DHT22;49345;47.428;9.892;2022-07-19T01:16:14;15.20;99.90
58161;DHT22;49345;47.428;9.892;2022-07-19T01:18:39;15.20;99.90
58161;DHT22;49345;47.428;9.892;2022-07-19T01:21:05;15.20;99.90
58161;DHT22;49345;47.428;9.892;2022-07-19T01:23:32;15.20;99.90
58161;DHT22;49345;47.428;9.892;2022-07-19T01:25:58;15.10;99.90
58161;DHT22;49345;47.428;9.892;2022-07-19T01:28:23;15.20;99.90
58161;DHT22;49345;47.428;9.892;2022-07-19T01:30:49;15.20;99.90
58161;DHT22;49345;47.428;9.892;2022-07-19T01:33:16;15.10;99.90
58161;DHT22;49345;47.428;9.892;2022-07-19T01:35:42;15.10;99.90
58161;DHT22;49345;47.428;9.892;2022-07-19T01:38:07;15.00;99.90
58161;DHT22;49345;47.428;9.892;2022-07-19T01:40:33;15.00;99.90
58161;DHT22;49345;47.428;9.892;2022-07-19T01:42:58;15.00;99.90
58161;DHT22;49345;47.428;9.892;2022-07-19T01:45:24;14.90;99.90
58161;DHT22;49345;47.428;9.892;2022-07-19T01:47:50;14.90;99.90
58161;DHT22;49345;47.428;9.892;2022-07-19T01:50:16;14.90;99.90
58161;DHT22;49345;47.428;9.892;2022-07-19T01:52:42;14.80;99.90
58161;DHT22;49345;47.428;9.892;2022-07-19T01:55:08;14.90;99.90
58161;DHT22;49345;47.428;9.892;2022-07-19T01:57:33;14.80;99.90
58161;DHT22;49345;47.428;9.892;2022-07-19T01:59:59;14.70;99.90
58161;DHT22;49345;47.428;9.892;2022-07-19T02:02:25;14.80;99.90
58161;DHT22;49345;47.428;9.892;2022-07-19T02:04:50;14.80;99.90
58161;DHT22;49345;47.428;9.892;2022-07-19T02:07:16;14.80;99.90
58161;DHT22;49345;47.428;9.892;2022-07-19T02:09:41;14.70;99.90
58161;DHT22;49345;47.428;9.892;2022-07-19T02:12:07;14.70;99.90
58161;DHT22;49345;47.428;9.892;2022-07-19T02:14:33;14.70;99.90
58161;DHT22;49345;47.428;9.892;2022-07-19T02:16:58;14.60;99.90
58161;DHT22;49345;47.428;9.892;2022-07-19T02:19:24;14.60;99.90
58161;DHT22;49345;47.428;9.892;2022-07-19T02:21:49;14.60;99.90
58161;DHT22;49345;47.428;9.892;2022-07-19T02:24:15;14.60;99.90
58161;DHT22;49345;47.428;9.892;2022-07-19T02:26:40;14.60;99.90
58161;DHT22;49345;47.428;9.892;2022-07-19T02:29:06;14.50;99.90
58161;DHT22;49345;47.428;9.892;2022-07-19T02:31:32;14.50;99.90
58161;DHT22;49345;47.428;9.892;2022-07-19T02:33:58;14.50;99.90
58161;DHT22;49345;47.428;9.892;2022-07-19T02:36:23;14.50;99.90
58161;DHT22;49345;47.428;9.892;2022-07-19T02:38:49;14.50;99.90
58161;DHT22;49345;47.428;9.892;2022-07-19T02:41:15;14.50;99.90
58161;DHT22;49345;47.428;9.892;2022-07-19T02:43:40;14.40;99.90
58161;DHT22;49345;47.428;9.892;2022-07-19T02:46:06;14.40;99.90
58161;DHT22;49345;47.428;9.892;2022-07-19T02:48:31;14.40;99.90
58161;DHT22;49345;47.428;9.892;2022-07-19T02:50:58;14.40;99.90
58161;DHT22;49345;47.428;9.892;2022-07-19T02:53:24;14.40;99.90
58161;DHT22;49345;47.428;9.892;2022-07-19T02:55:49;14.40;99.90
58161;DHT22;49345;47.428;9.892;2022-07-19T02:58:15;14.30;99.90
58161;DHT22;49345;47.428;9.892;2022-07-19T03:00:41;14.30;99.90
58161;DHT22;49345;47.428;9.892;2022-07-19T03:03:06;14.30;99.90
58161;DHT22;49345;47.428;9.892;2022-07-19T03:06:04;14.20;99.90
58161;DHT22;49345;47.428;9.892;2022-07-19T03:08:29;14.10;99.90
58161;DHT22;49345;47.428;9.892;2022-07-19T03:10:55;14.10;99.90
58161;DHT22;49345;47.428;9.892;2022-07-19T03:13:20;14.10;99.90
58161;DHT22;49345;47.428;9.892;2022-07-19T03:15:46;14.20;99.90
58161;DHT22;49345;47.428;9.892;2022-07-19T03:18:11;14.10;99.90
58161;DHT22;49345;47.428;9.892;2022-07-19T03:20:37;14.10;99.90
58161;DHT22;49345;47.428;9.892;2022-07-19T03:23:02;14.10;99.90
58161;DHT22;49345;47.428;9.892;2022-07-19T03:25:28;14.10;99.90
58161;DHT22;49345;47.428;9.892;2022-07-19T03:27:53;14.10;99.90
58161;DHT22;49345;47.428;9.892;2022-07-19T03:30:19;14.10;99.90
58161;DHT22;49345;47.428;9.892;2022-07-19T03:32:45;14.10;99.90
58161;DHT22;49345;47.428;9.892;2022-07-19T03:35:10;14.00;99.90
58161;DHT22;49345;47.428;9.892;2022-07-19T03:37:36;14.00;99.90
58161;DHT22;49345;47.428;9.892;2022-07-19T03:40:02;14.00;99.90
58161;DHT22;49345;47.428;9.892;2022-07-19T03:42:28;14.00;99.90
58161;DHT22;49345;47.428;9.892;2022-07-19T03:44:53;14.00;99.90
58161;DHT22;49345;47.428;9.892;2022-07-19T03:47:19;14.00;99.90
58161;DHT22;49345;47.428;9.892;2022-07-19T03:49:44;14.00;99.90
58161;DHT22;49345;47.428;9.892;2022-07-19T03:52:10;14.00;99.90
58161;DHT22;49345;47.428;9.892;2022-07-19T03:54:36;14.00;99.90
58161;DHT22;49345;47.428;9.892;2022-07-19T03:57:02;13.90;99.90
58161;DHT22;49345;47.428;9.892;2022-07-19T03:59:27;13.80;99.90
58161;DHT22;49345;47.428;9.892;2022-07-19T04:01:53;13.80;99.90
58161;DHT22;49345;47.428;9.892;2022-07-19T04:04:18;13.90;99.90
58161;DHT22;49345;47.428;9.892;2022-07-19T04:06:44;13.90;99.90
58161;DHT22;49345;47.428;9.892;2022-07-19T04:09:10;13.90;99.90
58161;DHT22;49345;47.428;9.892;2022-07-19T04:11:35;13.90;99.90
58161;DHT22;49345;47.428;9.892;2022-07-19T04:14:01;13.90;99.90
58161;DHT22;49345;47.428;9.892;2022-07-19T04:16:26;13.90;99.90
58161;DHT22;49345;47.428;9.892;2022-07-19T04:18:52;13.80;99.90
58161;DHT22;49345;47.428;9.892;2022-07-19T04:21:18;13.80;99.90
58161;DHT22;49345;47.428;9.892;2022-07-19T04:23:43;13.90;99.90
58161;DHT22;49345;47.428;9.892;2022-07-19T04:26:09;13.90;99.90
58161;DHT22;49345;47.428;9.892;2022-07-19T04:28:34;13.90;99.90
58161;DHT22;49345;47.428;9.892;2022-07-19T04:31:00;13.90;99.90
58161;DHT22;49345;47.428;9.892;2022-07-19T04:33:26;13.90;99.90
58161;DHT22;49345;47.428;9.892;2022-07-19T04:35:52;13.90;99.90
58161;DHT22;49345;47.428;9.892;2022-07-19T04:38:19;14.00;99.90
58161;DHT22;49345;47.428;9.892;2022-07-19T04:40:45;14.00;99.90
58161;DHT22;49345;47.428;9.892;2022-07-19T04:43:10;14.10;99.90
58161;DHT22;49345;47.428;9.892;2022-07-19T04:45:36;14.10;99.90
58161;DHT22;49345;47.428;9.892;2022-07-19T04:48:01;14.10;99.90
58161;DHT22;49345;47.428;9.892;2022-07-19T04:50:27;14.20;99.90
58161;DHT22;49345;47.428;9.892;2022-07-19T04:52:53;14.20;99.90
58161;DHT22;49345;47.428;9.892;2022-07-19T04:55:18;14.20;99.90
58161;DHT22;49345;47.428;9.892;2022-07-19T04:57:44;14.30;99.90
58161;DHT22;49345;47.428;9.892;2022-07-19T05:00:10;14.40;99.90
58161;DHT22;49345;47.428;9.892;2022-07-19T05:02:36;14.50;99.90
58161;DHT22;49345;47.428;9.892;2022-07-19T05:05:02;14.60;99.90
58161;DHT22;49345;47.428;9.892;2022-07-19T05:07:28;14.60;99.90
58161;DHT22;49345;47.428;9.892;2022-07-19T05:09:53;14.70;99.90
58161;DHT22;49345;47.428;9.892;2022-07-19T05:12:19;14.70;99.90
58161;DHT22;49345;47.428;9.892;2022-07-19T05:14:44;14.80;99.90
58161;DHT22;49345;47.428;9.892;2022-07-19T05:17:10;14.90;99.90
58161;DHT22;49345;47.428;9.892;2022-07-19T05:19:35;14.90;99.90
58161;DHT22;49345;47.428;9.892;2022-07-19T05:22:01;15.00;99.90
58161;DHT22;49345;47.428;9.892;2022-07-19T05:24:26;15.10;99.90
58161;DHT22;49345;47.428;9.892;2022-07-19T05:26:52;15.20;99.90
58161;DHT22;49345;47.428;9.892;2022-07-19T05:29:17;15.30;99.90
58161;DHT22;49345;47.428;9.892;2022-07-19T05:31:43;15.40;99.90
58161;DHT22;49345;47.428;9.892;2022-07-19T05:34:09;15.40;99.90
58161;DHT22;49345;47.428;9.892;2022-07-19T05:36:34;15.50;99.90
58161;DHT22;49345;47.428;9.892;2022-07-19T05:39:00;15.60;99.90
58161;DHT22;49345;47.428;9.892;2022-07-19T05:41:25;15.80;99.90
58161;DHT22;49345;47.428;9.892;2022-07-19T05:43:51;15.90;99.90
58161;DHT22;49345;47.428;9.892;2022-07-19T05:46:17;16.10;99.20
58161;DHT22;49345;47.428;9.892;2022-07-19T05:48:42;16.20;99.10
58161;DHT22;49345;47.428;9.892;2022-07-19T05:51:08;16.40;98.80
58161;DHT22;49345;47.428;9.892;2022-07-19T05:53:37;16.40;98.70
58161;DHT22;49345;47.428;9.892;2022-07-19T05:56:03;16.50;98.50
58161;DHT22;49345;47.428;9.892;2022-07-19T05:58:29;16.50;98.50
58161;DHT22;49345;47.428;9.892;2022-07-19T06:00:54;16.50;98.40
58161;DHT22;49345;47.428;9.892;2022-07-19T06:03:51;16.60;98.70
58161;DHT22;49345;47.428;9.892;2022-07-19T06:06:19;16.80;98.70
58161;DHT22;49345;47.428;9.892;2022-07-19T06:08:45;16.90;98.70
58161;DHT22;49345;47.428;9.892;2022-07-19T06:11:10;17.00;98.40
58161;DHT22;49345;47.428;9.892;2022-07-19T06:13:36;17.10;98.40
58161;DHT22;49345;47.428;9.892;2022-07-19T06:16:02;17.20;97.80
58161;DHT22;49345;47.428;9.892;2022-07-19T06:18:28;17.30;97.40
58161;DHT22;49345;47.428;9.892;2022-07-19T06:23:57;17.50;96.80
58161;DHT22;49345;47.428;9.892;2022-07-19T06:26:23;17.60;95.90
58161;DHT22;49345;47.428;9.892;2022-07-19T06:28:49;17.90;95.10
58161;DHT22;49345;47.428;9.892;2022-07-19T06:31:14;18.00;94.20
58161;DHT22;49345;47.428;9.892;2022-07-19T06:33:42;18.10;94.00
58161;DHT22;49345;47.428;9.892;2022-07-19T06:36:08;18.20;94.20
58161;DHT22;49345;47.428;9.892;2022-07-19T06:38:34;18.30;94.00
58161;DHT22;49345;47.428;9.892;2022-07-19T06:40:59;18.40;94.20
58161;DHT22;49345;47.428;9.892;2022-07-19T06:43:25;18.50;94.00
58161;DHT22;49345;47.428;9.892;2022-07-19T06:45:50;18.60;93.80
58161;DHT22;49345;47.428;9.892;2022-07-19T06:48:16;18.70;93.50
58161;DHT22;49345;47.428;9.892;2022-07-19T06:50:41;18.70;93.30
58161;DHT22;49345;47.428;9.892;2022-07-19T06:53:07;18.80;93.30
58161;DHT22;49345;47.428;9.892;2022-07-19T06:55:33;18.90;93.20
58161;DHT22;49345;47.428;9.892;2022-07-19T06:57:58;19.00;91.80
58161;DHT22;49345;47.428;9.892;2022-07-19T07:00:24;19.00;92.00
58161;DHT22;49345;47.428;9.892;2022-07-19T07:02:49;19.10;92.00
58161;DHT22;49345;47.428;9.892;2022-07-19T07:05:15;19.20;92.00
58161;DHT22;49345;47.428;9.892;2022-07-19T07:07:40;19.30;91.90
58161;DHT22;49345;47.428;9.892;2022-07-19T07:10:07;19.40;91.50
58161;DHT22;49345;47.428;9.892;2022-07-19T07:12:33;19.50;91.70
58161;DHT22;49345;47.428;9.892;2022-07-19T07:14:58;19.60;91.90
58161;DHT22;49345;47.428;9.892;2022-07-19T07:17:24;19.80;90.70
58161;DHT22;49345;47.428;9.892;2022-07-19T07:19:49;19.90;91.30
58161;DHT22;49345;47.428;9.892;2022-07-19T07:22:15;20.00;90.60
58161;DHT22;49345;47.428;9.892;2022-07-19T07:24:41;20.10;90.70
58161;DHT22;49345;47.428;9.892;2022-07-19T07:27:06;20.20;90.70
58161;DHT22;49345;47.428;9.892;2022-07-19T07:29:32;20.30;90.40
58161;DHT22;49345;47.428;9.892;2022-07-19T07:31:57;20.40;90.40
58161;DHT22;49345;47.428;9.892;2022-07-19T07:34:23;20.50;90.00
58161;DHT22;49345;47.428;9.892;2022-07-19T07:36:48;20.60;90.20
58161;DHT22;49345;47.428;9.892;2022-07-19T07:39:14;20.80;89.40
58161;DHT22;49345;47.428;9.892;2022-07-19T07:41:40;20.90;88.90
58161;DHT22;49345;47.428;9.892;2022-07-19T07:44:05;21.10;88.30
58161;DHT22;49345;47.428;9.892;2022-07-19T07:46:31;21.20;88.10
58161;DHT22;49345;47.428;9.892;2022-07-19T07:48:57;21.20;86.60
58161;DHT22;49345;47.428;9.892;2022-07-19T07:51:22;21.30;86.60
58161;DHT22;49345;47.428;9.892;2022-07-19T07:53:48;21.30;86.10
58161;DHT22;49345;47.428;9.892;2022-07-19T07:56:13;21.40;86.00
58161;DHT22;49345;47.428;9.892;2022-07-19T07:58:39;21.40;86.20
58161;DHT22;49345;47.428;9.892;2022-07-19T08:01:05;21.50;86.30
58161;DHT22;49345;47.428;9.892;2022-07-19T08:03:30;21.60;85.90
58161;DHT22;49345;47.428;9.892;2022-07-19T08:05:56;21.50;85.60
58161;DHT22;49345;47.428;9.892;2022-07-19T08:08:23;21.50;85.80
58161;DHT22;49345;47.428;9.892;2022-07-19T08:13:49;21.80;83.50
58161;DHT22;49345;47.428;9.892;2022-07-19T08:16:15;22.00;82.70
58161;DHT22;49345;47.428;9.892;2022-07-19T08:18:42;22.20;81.20
58161;DHT22;49345;47.428;9.892;2022-07-19T08:21:08;22.40;81.20
58161;DHT22;49345;47.428;9.892;2022-07-19T08:23:35;22.40;79.30
58161;DHT22;49345;47.428;9.892;2022-07-19T08:26:00;22.40;79.80
58161;DHT22;49345;47.428;9.892;2022-07-19T08:28:26;22.50;79.10
58161;DHT22;49345;47.428;9.892;2022-07-19T08:30:51;22.50;79.80
58161;DHT22;49345;47.428;9.892;2022-07-19T08:33:17;22.50;79.60
58161;DHT22;49345;47.428;9.892;2022-07-19T08:35:44;22.50;79.10
58161;DHT22;49345;47.428;9.892;2022-07-19T08:38:09;22.50;79.00
58161;DHT22;49345;47.428;9.892;2022-07-19T08:40:35;22.50;80.30
58161;DHT22;49345;47.428;9.892;2022-07-19T08:43:04;22.70;83.30
58161;DHT22;49345;47.428;9.892;2022-07-19T08:45:30;22.80;81.30
58161;DHT22;49345;47.428;9.892;2022-07-19T08:47:57;22.90;82.00
58161;DHT22;49345;47.428;9.892;2022-07-19T08:50:22;23.10;80.60
58161;DHT22;49345;47.428;9.892;2022-07-19T08:52:50;23.20;79.60
58161;DHT22;49345;47.428;9.892;2022-07-19T08:55:16;23.30;78.80
58161;DHT22;49345;47.428;9.892;2022-07-19T08:57:42;23.40;78.70
58161;DHT22;49345;47.428;9.892;2022-07-19T09:00:37;23.40;78.60
58161;DHT22;49345;47.428;9.892;2022-07-19T09:08:57;23.70;78.40
58161;DHT22;49345;47.428;9.892;2022-07-19T09:17:17;23.90;76.90
58161;DHT22;49345;47.428;9.892;2022-07-19T09:19:45;24.00;77.20
58161;DHT22;49345;47.428;9.892;2022-07-19T09:22:12;24.10;75.80
58161;DHT22;49345;47.428;9.892;2022-07-19T09:24:38;24.30;73.60
58161;DHT22;49345;47.428;9.892;2022-07-19T09:29:45;24.50;73.90
58161;DHT22;49345;47.428;9.892;2022-07-19T09:32:11;24.60;73.10
58161;DHT22;49345;47.428;9.892;2022-07-19T09:34:40;24.80;72.60
58161;DHT22;49345;47.428;9.892;2022-07-19T09:40:00;25.20;66.80
58161;DHT22;49345;47.428;9.892;2022-07-19T09:45:21;25.50;69.10
58161;DHT22;49345;47.428;9.892;2022-07-19T09:47:50;25.70;65.70
58161;DHT22;49345;47.428;9.892;2022-07-19T09:50:17;25.90;68.10
58161;DHT22;49345;47.428;9.892;2022-07-19T09:55:35;26.30;68.80
58161;DHT22;49345;47.428;9.892;2022-07-19T09:58:01;26.40;65.30
58161;DHT22;49345;47.428;9.892;2022-07-19T10:00:27;26.50;63.50
58161;DHT22;49345;47.428;9.892;2022-07-19T10:05:49;26.40;63.70
58161;DHT22;49345;47.428;9.892;2022-07-19T10:08:14;26.40;64.40
58161;DHT22;49345;47.428;9.892;2022-07-19T10:10:40;26.40;63.60
58161;DHT22;49345;47.428;9.892;2022-07-19T10:13:06;26.50;63.90
58161;DHT22;49345;47.428;9.892;2022-07-19T10:15:34;26.50;65.00
58161;DHT22;49345;47.428;9.892;2022-07-19T10:20:55;26.70;64.20
58161;DHT22;49345;47.428;9.892;2022-07-19T10:26:32;26.90;63.20
58161;DHT22;49345;47.428;9.892;2022-07-19T10:40:50;27.60;62.30
58161;DHT22;49345;47.428;9.892;2022-07-19T10:46:11;27.80;61.10
58161;DHT22;49345;47.428;9.892;2022-07-19T10:51:42;28.00;64.30
58161;DHT22;49345;47.428;9.892;2022-07-19T10:54:08;28.20;63.10
58161;DHT22;49345;47.428;9.892;2022-07-19T10:56:36;28.30;62.50
58161;DHT22;49345;47.428;9.892;2022-07-19T11:01:58;28.50;62.00
58161;DHT22;49345;47.428;9.892;2022-07-19T11:07:24;28.90;61.00
58161;DHT22;49345;47.428;9.892;2022-07-19T11:09:52;29.00;60.70
58161;DHT22;49345;47.428;9.892;2022-07-19T11:12:19;29.00;57.90
58161;DHT22;49345;47.428;9.892;2022-07-19T11:14:44;29.10;56.10
58161;DHT22;49345;47.428;9.892;2022-07-19T11:17:10;29.10;56.20
58161;DHT22;49345;47.428;9.892;2022-07-19T11:19:36;29.20;55.30
58161;DHT22;49345;47.428;9.892;2022-07-19T11:22:01;29.20;54.60
58161;DHT22;49345;47.428;9.892;2022-07-19T11:24:27;29.30;55.40
58161;DHT22;49345;47.428;9.892;2022-07-19T11:26:52;29.30;54.30
58161;DHT22;49345;47.428;9.892;2022-07-19T11:29:19;29.30;54.20
58161;DHT22;49345;47.428;9.892;2022-07-19T11:31:46;29.60;53.50
58161;DHT22;49345;47.428;9.892;2022-07-19T11:34:12;29.70;53.90
58161;DHT22;49345;47.428;9.892;2022-07-19T11:36:38;29.70;53.70
58161;DHT22;49345;47.428;9.892;2022-07-19T11:39:04;29.70;55.60
58161;DHT22;49345;47.428;9.892;2022-07-19T11:41:30;29.80;53.50
58161;DHT22;49345;47.428;9.892;2022-07-19T11:43:57;29.90;51.20
58161;DHT22;49345;47.428;9.892;2022-07-19T11:46:23;30.00;51.40
58161;DHT22;49345;47.428;9.892;2022-07-19T11:48:49;30.00;52.30
58161;DHT22;49345;47.428;9.892;2022-07-19T11:51:15;30.10;50.80
58161;DHT22;49345;47.428;9.892;2022-07-19T11:53:41;30.00;50.90
58161;DHT22;49345;47.428;9.892;2022-07-19T11:59:00;30.20;46.90
58161;DHT22;49345;47.428;9.892;2022-07-19T12:01:27;30.20;47.60
58161;DHT22;49345;47.428;9.892;2022-07-19T12:03:54;30.20;45.60
58161;DHT22;49345;47.428;9.892;2022-07-19T12:06:20;30.40;46.60
58161;DHT22;49345;47.428;9.892;2022-07-19T12:09:02;30.50;47.50
58161;DHT22;49345;47.428;9.892;2022-07-19T12:11:28;30.50;47.80
58161;DHT22;49345;47.428;9.892;2022-07-19T12:13:54;30.60;48.40
58161;DHT22;49345;47.428;9.892;2022-07-19T12:16:20;30.60;48.20
58161;DHT22;49345;47.428;9.892;2022-07-19T12:21:43;30.60;47.50
58161;DHT22;49345;47.428;9.892;2022-07-19T12:29:46;30.80;49.30
58161;DHT22;49345;47.428;9.892;2022-07-19T12:32:13;30.80;50.00
58161;DHT22;49345;47.428;9.892;2022-07-19T12:40:34;30.90;47.70
58161;DHT22;49345;47.428;9.892;2022-07-19T12:43:01;30.90;47.60
58161;DHT22;49345;47.428;9.892;2022-07-19T12:48:27;30.90;48.30
58161;DHT22;49345;47.428;9.892;2022-07-19T12:50:52;30.90;47.60
58161;DHT22;49345;47.428;9.892;2022-07-19T12:53:18;31.00;47.60
58161;DHT22;49345;47.428;9.892;2022-07-19T12:55:43;31.00;46.70
58161;DHT22;49345;47.428;9.892;2022-07-19T12:58:10;30.90;44.30
58161;DHT22;49345;47.428;9.892;2022-07-19T13:00:36;31.00;44.30
58161;DHT22;49345;47.428;9.892;2022-07-19T13:03:02;31.10;42.80
58161;DHT22;49345;47.428;9.892;2022-07-19T13:05:31;31.10;41.80
58161;DHT22;49345;47.428;9.892;2022-07-19T13:07:58;31.10;43.50
58161;DHT22;49345;47.428;9.892;2022-07-19T13:10:24;31.10;40.40
58161;DHT22;49345;47.428;9.892;2022-07-19T13:12:49;31.10;42.40
58161;DHT22;49345;47.428;9.892;2022-07-19T13:15:15;31.10;41.30
58161;DHT22;49345;47.428;9.892;2022-07-19T13:17:41;31.20;41.10
58161;DHT22;49345;47.428;9.892;2022-07-19T13:20:07;31.20;40.80
58161;DHT22;49345;47.428;9.892;2022-07-19T13:22:34;31.20;41.00
58161;DHT22;49345;47.428;9.892;2022-07-19T13:25:00;31.40;40.90
58161;DHT22;49345;47.428;9.892;2022-07-19T13:27:26;31.30;40.80
58161;DHT22;49345;47.428;9.892;2022-07-19T13:29:52;31.20;40.00
58161;DHT22;49345;47.428;9.892;2022-07-19T13:32:18;31.40;41.40
58161;DHT22;49345;47.428;9.892;2022-07-19T13:34:43;31.30;40.60
58161;DHT22;49345;47.428;9.892;2022-07-19T13:37:09;31.30;41.00
58161;DHT22;49345;47.428;9.892;2022-07-19T13:39:34;31.20;41.80
58161;DHT22;49345;47.428;9.892;2022-07-19T13:42:00;31.20;41.00
58161;DHT22;49345;47.428;9.892;2022-07-19T13:44:26;31.30;40.20
58161;DHT22;49345;47.428;9.892;2022-07-19T13:46:51;31.40;40.00
58161;DHT22;49345;47.428;9.892;2022-07-19T13:49:17;31.50;38.30
58161;DHT22;49345;47.428;9.892;2022-07-19T13:51:42;31.50;40.20
58161;DHT22;49345;47.428;9.892;2022-07-19T13:54:08;31.50;40.50
58161;DHT22;49345;47.428;9.892;2022-07-19T13:56:34;31.40;38.90
58161;DHT22;49345;47.428;9.892;2022-07-19T13:59:00;31.40;37.30
58161;DHT22;49345;47.428;9.892;2022-07-19T14:01:26;31.40;39.00
58161;DHT22;49345;47.428;9.892;2022-07-19T14:03:52;31.40;38.30
58161;DHT22;49345;47.428;9.892;2022-07-19T14:06:17;31.40;39.60
58161;DHT22;49345;47.428;9.892;2022-07-19T14:08:43;31.40;39.20
58161;DHT22;49345;47.428;9.892;2022-07-19T14:11:09;31.40;39.00
58161;DHT22;49345;47.428;9.892;2022-07-19T14:13:34;31.50;39.90
58161;DHT22;49345;47.428;9.892;2022-07-19T14:16:00;31.70;40.50
58161;DHT22;49345;47.428;9.892;2022-07-19T14:18:27;31.80;38.80
58161;DHT22;49345;47.428;9.892;2022-07-19T14:20:52;31.80;39.20
58161;DHT22;49345;47.428;9.892;2022-07-19T14:23:18;31.70;38.80
58161;DHT22;49345;47.428;9.892;2022-07-19T14:25:43;31.70;39.00
58161;DHT22;49345;47.428;9.892;2022-07-19T14:28:09;31.80;39.30
58161;DHT22;49345;47.428;9.892;2022-07-19T14:30:34;31.90;39.30
58161;DHT22;49345;47.428;9.892;2022-07-19T14:33:00;31.90;38.30
58161;DHT22;49345;47.428;9.892;2022-07-19T14:35:26;31.90;37.20
58161;DHT22;49345;47.428;9.892;2022-07-19T14:37:52;32.00;38.10
58161;DHT22;49345;47.428;9.892;2022-07-19T14:40:18;32.10;35.60
58161;DHT22;49345;47.428;9.892;2022-07-19T14:42:43;32.20;35.20
58161;DHT22;49345;47.428;9.892;2022-07-19T14:45:09;32.10;35.80
58161;DHT22;49345;47.428;9.892;2022-07-19T14:47:35;32.00;37.90
58161;DHT22;49345;47.428;9.892;2022-07-19T14:50:02;31.90;37.40
58161;DHT22;49345;47.428;9.892;2022-07-19T14:52:28;32.10;36.70
58161;DHT22;49345;47.428;9.892;2022-07-19T14:54:54;32.10;34.00
58161;DHT22;49345;47.428;9.892;2022-07-19T14:57:19;32.20;34.10
58161;DHT22;49345;47.428;9.892;2022-07-19T14:59:45;32.30;34.30
58161;DHT22;49345;47.428;9.892;2022-07-19T15:02:10;32.30;34.50
58161;DHT22;49345;47.428;9.892;2022-07-19T15:04:36;32.30;35.50
58161;DHT22;49345;47.428;9.892;2022-07-19T15:07:02;32.30;36.60
58161;DHT22;49345;47.428;9.892;2022-07-19T15:09:28;32.40;37.20
58161;DHT22;49345;47.428;9.892;2022-07-19T15:11:53;32.40;37.70
58161;DHT22;49345;47.428;9.892;2022-07-19T15:14:19;32.30;37.40
58161;DHT22;49345;47.428;9.892;2022-07-19T15:16:45;32.30;37.40
58161;DHT22;49345;47.428;9.892;2022-07-19T15:19:11;32.30;35.50
58161;DHT22;49345;47.428;9.892;2022-07-19T15:21:36;32.30;35.70
58161;DHT22;49345;47.428;9.892;2022-07-19T15:24:02;32.30;34.50
58161;DHT22;49345;47.428;9.892;2022-07-19T15:26:28;32.40;35.10
58161;DHT22;49345;47.428;9.892;2022-07-19T15:28:54;32.40;36.60
58161;DHT22;49345;47.428;9.892;2022-07-19T15:31:20;32.50;34.60
58161;DHT22;49345;47.428;9.892;2022-07-19T15:33:45;32.50;34.20
58161;DHT22;49345;47.428;9.892;2022-07-19T15:36:11;32.50;32.40
58161;DHT22;49345;47.428;9.892;2022-07-19T15:38:36;32.50;33.00
58161;DHT22;49345;47.428;9.892;2022-07-19T15:41:02;32.40;33.20
58161;DHT22;49345;47.428;9.892;2022-07-19T15:43:27;32.50;34.80
58161;DHT22;49345;47.428;9.892;2022-07-19T15:45:53;32.50;35.70
58161;DHT22;49345;47.428;9.892;2022-07-19T15:48:18;32.50;36.00
58161;DHT22;49345;47.428;9.892;2022-07-19T15:50:45;32.60;34.80
58161;DHT22;49345;47.428;9.892;2022-07-19T15:53:10;32.70;34.80
58161;DHT22;49345;47.428;9.892;2022-07-19T15:55:36;32.80;34.30
58161;DHT22;49345;47.428;9.892;2022-07-19T15:58:01;32.80;33.10
58161;DHT22;49345;47.428;9.892;2022-07-19T16:00:27;32.90;37.70
58161;DHT22;49345;47.428;9.892;2022-07-19T16:02:53;32.90;36.90
58161;DHT22;49345;47.428;9.892;2022-07-19T16:05:18;32.90;37.50
58161;DHT22;49345;47.428;9.892;2022-07-19T16:07:45;32.90;37.70
58161;DHT22;49345;47.428;9.892;2022-07-19T16:10:10;33.00;38.80
58161;DHT22;49345;47.428;9.892;2022-07-19T16:12:36;33.10;36.60
58161;DHT22;49345;47.428;9.892;2022-07-19T16:15:02;33.10;32.50
58161;DHT22;49345;47.428;9.892;2022-07-19T16:17:28;33.20;30.90
58161;DHT22;49345;47.428;9.892;2022-07-19T16:19:56;33.30;38.10
58161;DHT22;49345;47.428;9.892;2022-07-19T16:22:22;33.20;38.70
58161;DHT22;49345;47.428;9.892;2022-07-19T16:24:48;33.30;37.00
58161;DHT22;49345;47.428;9.892;2022-07-19T16:27:13;33.40;36.20
58161;DHT22;49345;47.428;9.892;2022-07-19T16:29:39;33.40;36.60
58161;DHT22;49345;47.428;9.892;2022-07-19T16:32:04;33.40;37.90
58161;DHT22;49345;47.428;9.892;2022-07-19T16:34:30;33.50;34.90
58161;DHT22;49345;47.428;9.892;2022-07-19T16:36:56;33.50;38.20
58161;DHT22;49345;47.428;9.892;2022-07-19T16:39:21;33.50;36.70
58161;DHT22;49345;47.428;9.892;2022-07-19T16:41:47;33.50;36.50
58161;DHT22;49345;47.428;9.892;2022-07-19T16:44:12;33.50;38.20